createdAt,value
2023-05-05T08:26:59.310Z,99.29
2023-05-05T08:29:02.184Z,99.44
2023-05-05T08:31:05.917Z,99.11
2023-05-05T08:33:08.325Z,99.23
2023-05-05T08:35:12.016Z,98.64
2023-05-05T08:37:14.686Z,97.93
2023-05-05T08:39:17.020Z,97.16
2023-05-05T08:41:19.971Z,95.98
2023-05-05T08:43:23.980Z,95.11
2023-05-05T08:45:28.024Z,94.62
2023-05-05T08:47:32.297Z,92.34
2023-05-05T08:49:43.997Z,91.37
2023-05-05T08:51:47.073Z,90.63
2023-05-05T08:53:56.220Z,87.88
2023-05-05T08:56:00.948Z,88.35
2023-05-05T08:58:06.296Z,87.14
2023-05-05T09:00:10.962Z,86.43
2023-05-05T09:02:14.899Z,87.11
2023-05-05T09:04:19.206Z,87.04
2023-05-05T09:06:23.439Z,86.63
2023-05-05T09:08:26.370Z,85.50
2023-05-05T09:10:29.476Z,86.24
2023-05-05T09:12:32.793Z,86.02
2023-05-05T09:16:55.146Z,82.60
2023-05-05T09:19:04.974Z,83.38
2023-05-05T09:21:27.803Z,83.07
2023-05-05T09:23:30.164Z,84.49
2023-05-05T09:25:33.109Z,83.57
2023-05-05T09:27:41.286Z,83.53
2023-05-05T09:29:49.114Z,82.17
2023-05-05T09:32:11.236Z,79.25
2023-05-05T09:34:15.992Z,80.06
2023-05-05T09:36:18.556Z,83.52
2023-05-05T09:38:23.420Z,80.64
2023-05-05T09:40:26.051Z,80.23
2023-05-05T09:42:28.492Z,80.23
2023-05-05T09:44:36.091Z,81.54
2023-05-05T09:46:49.179Z,80.45
2023-05-05T09:48:51.535Z,80.40
2023-05-05T09:50:55.345Z,76.13
2023-05-05T09:52:59.804Z,74.06
2023-05-05T09:55:02.318Z,72.11
2023-05-05T09:57:04.897Z,71.74
2023-05-05T09:59:11.910Z,71.32
2023-05-05T10:01:23.526Z,70.75
2023-05-05T10:03:26.492Z,70.11
2023-05-05T10:05:29.053Z,68.93
2023-05-05T10:07:31.382Z,69.31
2023-05-05T10:09:34.027Z,69.19
2023-05-05T10:11:36.965Z,69.23
2023-05-05T10:13:42.189Z,68.46
2023-05-05T10:15:47.222Z,67.38
2023-05-05T10:18:05.901Z,64.55
2023-05-05T10:20:10.850Z,64.43
2023-05-05T10:22:13.988Z,63.83
2023-05-05T10:24:25.534Z,63.56
2023-05-05T10:26:34.413Z,63.88
2023-05-05T10:28:51.687Z,63.51
2023-05-05T10:30:57.162Z,62.33
2023-05-05T10:35:32.967Z,56.21
2023-05-05T10:37:37.744Z,56.68
2023-05-05T10:39:40.114Z,56.63
2023-05-05T10:41:43.183Z,57.14
2023-05-05T10:43:46.932Z,57.56
2023-05-05T10:45:50.067Z,56.44
2023-05-05T10:47:55.322Z,55.42
2023-05-05T10:50:07.592Z,55.78
2023-05-05T10:52:36.097Z,55.97
2023-05-05T10:54:45.776Z,55.45
2023-05-05T10:56:48.988Z,56.44
2023-05-05T10:58:59.635Z,55.50
2023-05-05T11:01:04.484Z,53.31
2023-05-05T11:03:19.458Z,53.49
2023-05-05T11:05:22.563Z,52.61
2023-05-05T11:07:26.110Z,52.04
2023-05-05T11:09:29.315Z,51.35
2023-05-05T11:12:04.497Z,51.43
2023-05-05T11:14:21.394Z,51.65
2023-05-05T11:16:45.697Z,51.26
2023-05-05T11:18:48.109Z,50.24
2023-05-05T11:20:50.886Z,47.54
2023-05-05T11:23:02.474Z,45.50
2023-05-05T11:25:36.859Z,43.51
2023-05-05T11:28:07.230Z,40.50
2023-05-05T11:30:10.818Z,36.47
2023-05-05T11:32:15.605Z,33.15
2023-05-05T11:34:28.402Z,32.02
2023-05-05T11:36:40.832Z,33.16
2023-05-05T11:39:09.671Z,31.85
2023-05-05T11:41:30.846Z,30.67
2023-05-05T11:43:33.483Z,29.60
2023-05-05T11:45:36.016Z,29.12
2023-05-05T11:47:39.060Z,28.76
2023-05-05T11:49:41.344Z,27.99
2023-05-05T11:51:44.121Z,28.79
2023-05-05T11:53:48.488Z,28.96
2023-05-05T11:56:06.418Z,28.58
2023-05-05T11:58:19.035Z,26.74
2023-05-05T12:00:32.406Z,24.57
2023-05-05T12:02:35.509Z,24.75
2023-05-05T12:04:39.599Z,24.37
2023-05-05T12:06:43.308Z,24.32
2023-05-05T12:08:45.910Z,24.21
2023-05-05T12:10:48.244Z,23.34
2023-05-05T12:12:52.541Z,23.41
2023-05-05T12:14:57.225Z,24.91
2023-05-05T12:17:06.653Z,24.81
2023-05-05T12:19:11.767Z,25.80
2023-05-05T12:21:18.040Z,24.72
2023-05-05T12:23:20.611Z,24.12
2023-05-05T12:25:23.081Z,24.05
2023-05-05T12:27:27.441Z,23.17
2023-05-05T12:29:29.837Z,23.28
2023-05-05T12:31:36.030Z,25.07
2023-05-05T12:33:40.364Z,25.15
2023-05-05T12:35:42.684Z,25.25
2023-05-05T12:37:45.493Z,27.06
2023-05-05T12:39:49.609Z,26.42
2023-05-05T12:41:51.937Z,26.27
2023-05-05T12:43:58.995Z,26.22
2023-05-05T12:46:06.262Z,26.74
2023-05-05T12:48:23.927Z,28.80
2023-05-05T12:50:31.534Z,29.70
2023-05-05T12:52:45.030Z,29.67
2023-05-05T12:54:58.103Z,30.66
2023-05-05T12:57:11.513Z,31.77
2023-05-05T12:59:23.211Z,31.23
2023-05-05T13:01:25.846Z,32.34
2023-05-05T13:03:28.423Z,33.47
2023-05-05T13:05:36.306Z,33.08
2023-05-05T13:07:51.023Z,32.61
2023-05-05T13:10:07.616Z,32.23
2023-05-05T13:12:13.347Z,32.26
2023-05-05T13:14:15.615Z,32.94
2023-05-05T13:16:18.046Z,33.13
2023-05-05T13:18:20.767Z,32.23
2023-05-05T13:20:23.063Z,33.35
2023-05-05T13:22:25.555Z,33.51
2023-05-05T13:24:38.563Z,33.85
2023-05-05T13:26:49.642Z,33.65
2023-05-05T13:28:51.998Z,33.88
2023-05-05T13:30:55.892Z,33.90
2023-05-05T13:32:58.278Z,33.50
2023-05-05T13:35:00.614Z,34.41
2023-05-05T13:37:03.383Z,34.37
2023-05-05T13:39:05.810Z,34.34
2023-05-05T13:41:08.089Z,34.09
2023-05-05T13:43:10.846Z,34.10
2023-05-05T13:45:14.196Z,33.85
2023-05-05T13:47:16.574Z,33.77
2023-05-05T13:49:20.148Z,34.13
2023-05-05T13:51:22.466Z,33.63
2023-05-05T13:53:25.194Z,34.37
2023-05-05T13:55:31.009Z,34.80
2023-05-05T13:57:33.319Z,35.41
2023-05-05T13:59:35.864Z,35.48
2023-05-05T14:01:38.573Z,35.27
2023-05-05T14:03:41.251Z,35.03
2023-05-05T14:05:43.544Z,35.30
2023-05-05T14:07:48.800Z,34.72
2023-05-05T14:09:51.303Z,34.97
2023-05-05T14:11:53.607Z,34.99
2023-05-05T14:13:55.922Z,35.09
2023-05-05T14:15:58.599Z,35.32
2023-05-05T14:18:01.045Z,34.74
2023-05-05T14:20:03.704Z,34.99
2023-05-05T14:22:06.596Z,34.33
2023-05-05T14:24:08.988Z,34.30
2023-05-05T14:26:11.441Z,35.09
2023-05-05T14:28:14.279Z,35.38
2023-05-05T14:30:17.193Z,34.54
2023-05-05T14:32:19.557Z,35.57
2023-05-05T14:34:22.297Z,35.02
2023-05-05T14:36:24.622Z,35.38
2023-05-05T14:38:27.028Z,35.72
2023-05-05T14:40:31.116Z,36.16
2023-05-05T14:42:34.473Z,36.84
2023-05-05T14:44:36.794Z,36.47
2023-05-05T14:46:39.538Z,36.76
2023-05-05T14:48:41.889Z,37.03
2023-05-05T14:50:46.378Z,36.97
2023-05-05T14:52:48.981Z,36.66
2023-05-05T14:54:51.274Z,35.25
2023-05-05T14:56:53.687Z,35.00
2023-05-05T14:58:56.335Z,34.58
2023-05-05T15:00:59.056Z,34.13
2023-05-05T15:03:01.645Z,33.77
2023-05-05T15:05:05.220Z,35.05
2023-05-05T15:07:07.434Z,35.11
2023-05-05T15:09:09.753Z,34.75
2023-05-05T15:11:12.434Z,35.21
2023-05-05T15:13:15.241Z,35.54
2023-05-05T15:15:17.811Z,35.95
2023-05-05T15:17:20.477Z,36.14
2023-05-05T15:19:22.824Z,36.81
2023-05-05T15:21:25.134Z,36.42
2023-05-05T15:23:27.748Z,36.90
2023-05-05T15:25:30.344Z,36.54
2023-05-05T15:27:32.775Z,37.73
2023-05-05T15:29:35.376Z,37.65
2023-05-05T15:31:37.926Z,37.06
2023-05-05T15:33:40.545Z,37.29
2023-05-05T15:35:43.354Z,37.53
2023-05-05T15:37:45.997Z,37.56
2023-05-05T15:39:48.405Z,38.48
2023-05-05T15:43:53.098Z,39.38
2023-05-05T15:45:55.421Z,39.54
2023-05-05T15:47:58.009Z,39.21
2023-05-05T15:50:00.307Z,39.48
2023-05-05T15:52:02.601Z,39.80
2023-05-05T15:54:05.635Z,39.55
2023-05-05T15:56:08.176Z,40.00
2023-05-05T15:58:10.381Z,39.80
2023-05-05T16:00:33.275Z,39.89
2023-05-05T16:02:36.089Z,40.17
2023-05-05T16:04:38.483Z,40.17
2023-05-05T16:06:41.003Z,40.15
2023-05-05T16:08:43.697Z,40.34
2023-05-05T16:10:46.202Z,40.49
2023-05-05T16:12:48.718Z,40.86
2023-05-05T16:14:51.400Z,40.41
2023-05-05T16:16:54.631Z,42.45
2023-05-05T16:18:56.971Z,41.52
2023-05-05T16:20:59.741Z,42.04
2023-05-05T16:23:02.094Z,41.73
2023-05-05T16:25:04.924Z,42.06
2023-05-05T16:27:07.672Z,42.38
2023-05-05T16:29:10.514Z,42.84
2023-05-05T16:31:13.598Z,41.43
2023-05-05T16:33:16.269Z,41.02
2023-05-05T16:35:18.870Z,41.37
2023-05-05T16:37:21.228Z,40.84
2023-05-05T16:39:24.097Z,41.08
2023-05-05T16:41:26.955Z,42.05
2023-05-05T16:43:29.417Z,41.65
2023-05-05T16:45:32.450Z,40.81
2023-05-05T16:47:34.750Z,41.11
2023-05-05T16:49:37.027Z,41.02
2023-05-05T16:51:39.548Z,41.63
2023-05-05T16:53:42.006Z,42.19
2023-05-05T16:55:44.400Z,41.82
2023-05-05T16:57:47.955Z,44.93
2023-05-05T16:59:50.602Z,44.68
2023-05-05T17:01:52.965Z,43.96
2023-05-05T17:03:57.534Z,43.29
2023-05-05T17:06:00.000Z,44.85
2023-05-05T17:08:03.186Z,41.84
2023-05-05T17:10:06.522Z,41.99
2023-05-05T17:12:08.896Z,44.34
2023-05-05T17:14:11.152Z,44.15
2023-05-05T17:16:13.911Z,42.39
2023-05-05T17:18:16.281Z,42.70
2023-05-05T17:20:18.626Z,44.63
2023-05-05T17:22:21.257Z,42.93
2023-05-05T17:24:24.154Z,43.74
2023-05-05T17:26:26.468Z,45.38
2023-05-05T17:28:29.226Z,44.73
2023-05-05T17:30:31.749Z,45.05
2023-05-05T17:32:34.118Z,45.68
2023-05-05T17:34:36.686Z,44.93
2023-05-05T17:36:39.114Z,48.09
2023-05-05T17:38:41.426Z,48.11
2023-05-05T17:40:44.526Z,46.50
2023-05-05T17:42:47.289Z,45.22
2023-05-05T17:44:50.180Z,46.95
2023-05-05T17:46:52.855Z,50.58
2023-05-05T17:48:55.651Z,46.90
2023-05-05T17:50:57.994Z,46.37
2023-05-05T17:53:00.618Z,47.25
2023-05-05T17:55:02.973Z,46.83
2023-05-05T17:57:05.263Z,45.89
2023-05-05T17:59:08.933Z,45.74
2023-05-05T18:01:23.397Z,47.95
2023-05-05T18:03:26.508Z,51.06
2023-05-05T18:05:28.976Z,52.33
2023-05-05T18:07:31.859Z,49.88
2023-05-05T18:09:34.570Z,50.59
2023-05-05T18:11:37.515Z,51.93
2023-05-05T18:13:39.861Z,50.71
2023-05-05T18:15:42.605Z,51.14
2023-05-05T18:17:45.024Z,52.36
2023-05-05T18:19:49.140Z,52.26
2023-05-05T18:21:53.075Z,50.73
2023-05-05T18:24:01.751Z,52.56
2023-05-05T18:26:10.368Z,51.25
2023-05-05T18:28:17.648Z,50.71
2023-05-05T18:30:20.142Z,50.31
2023-05-05T18:32:22.467Z,52.27
2023-05-05T18:34:25.052Z,52.68
2023-05-05T18:36:27.923Z,53.38
2023-05-05T18:38:31.615Z,52.71
2023-05-05T18:40:34.327Z,52.91
2023-05-05T18:42:36.755Z,54.02
2023-05-05T18:44:39.054Z,55.07
2023-05-05T18:46:43.233Z,56.21
2023-05-05T18:48:45.612Z,57.19
2023-05-05T18:50:48.966Z,58.29
2023-05-05T18:52:51.672Z,59.68
2023-05-05T18:54:53.992Z,60.31
2023-05-05T18:56:56.566Z,63.20
2023-05-05T18:58:59.300Z,64.01
2023-05-05T19:01:01.833Z,65.83
2023-05-05T19:03:04.255Z,67.69
2023-05-05T19:05:08.394Z,69.02
2023-05-05T19:09:33.844Z,73.59
2023-05-05T19:11:36.563Z,75.12
2023-05-05T19:15:46.476Z,78.67
2023-05-05T19:17:49.222Z,79.20
2023-05-05T19:19:51.579Z,80.91
2023-05-05T19:21:53.879Z,83.30
2023-05-05T19:23:56.515Z,84.42
2023-05-05T19:25:58.922Z,82.90
2023-05-05T19:28:01.188Z,84.14
2023-05-05T19:30:05.319Z,85.11
2023-05-05T19:32:07.789Z,88.84
2023-05-05T19:34:10.105Z,84.19
2023-05-05T19:36:12.741Z,89.00
2023-05-05T19:38:15.749Z,84.71
2023-05-05T19:40:18.029Z,84.29
2023-05-05T19:42:20.732Z,85.89
2023-05-05T19:44:23.082Z,86.03
2023-05-05T19:46:26.712Z,82.75
2023-05-05T19:48:29.417Z,82.26
2023-05-05T19:50:31.814Z,83.56
2023-05-05T19:52:36.575Z,86.82
2023-05-05T19:54:39.100Z,90.18
2023-05-05T19:56:41.548Z,89.70
2023-05-05T19:59:00.855Z,86.60
2023-05-05T20:01:03.561Z,89.29
2023-05-05T20:03:06.914Z,86.72
2023-05-05T20:05:11.504Z,84.47
2023-05-05T20:07:13.767Z,83.50
2023-05-05T20:09:17.274Z,85.73
2023-05-05T20:11:21.216Z,86.15
2023-05-05T20:13:23.645Z,87.82
2023-05-05T20:15:26.358Z,86.87
2023-05-05T20:17:28.754Z,87.17
2023-05-05T20:19:31.365Z,92.47
2023-05-05T20:21:34.551Z,91.65
2023-05-05T20:23:37.142Z,92.54
2023-05-05T20:25:39.433Z,93.08
2023-05-05T20:27:42.692Z,93.14
2023-05-05T20:29:45.043Z,94.54
2023-05-05T20:31:48.059Z,94.44
2023-05-05T20:33:50.748Z,91.79
2023-05-05T20:35:53.115Z,92.64
2023-05-05T20:37:55.416Z,92.27
2023-05-05T20:39:58.331Z,94.28
2023-05-05T20:42:01.251Z,93.83
2023-05-05T20:44:03.583Z,91.69
2023-05-05T20:46:07.186Z,91.79
2023-05-05T20:48:11.316Z,90.74
2023-05-05T20:50:13.986Z,92.22
2023-05-05T20:52:16.690Z,94.02
2023-05-05T20:54:19.005Z,96.92
2023-05-05T20:56:21.826Z,97.43
2023-05-05T20:58:24.340Z,96.93
2023-05-05T21:00:27.160Z,97.38
2023-05-05T21:02:29.844Z,97.35
2023-05-05T21:04:32.541Z,97.30
2023-05-05T21:06:34.819Z,96.53
2023-05-05T21:08:37.198Z,97.43
2023-05-05T21:10:39.847Z,98.23
2023-05-05T21:12:42.182Z,99.70
2023-05-05T21:14:45.649Z,97.98
2023-05-05T21:16:48.855Z,98.77
2023-05-05T21:18:51.307Z,97.42
2023-05-05T21:20:53.749Z,98.55
2023-05-05T21:22:59.429Z,97.21
2023-05-05T21:25:12.608Z,97.70
2023-05-05T21:27:15.058Z,97.99
2023-05-05T21:29:17.645Z,97.73
2023-05-05T21:31:22.415Z,97.57
2023-05-05T21:33:24.855Z,97.92
2023-05-05T21:35:27.402Z,97.93
2023-05-05T21:37:29.793Z,98.66
2023-05-05T21:39:35.442Z,99.71
2023-05-05T21:41:38.162Z,100.00
2023-05-05T21:43:40.468Z,100.00
2023-05-05T21:45:42.959Z,100.00
2023-05-05T21:47:45.632Z,100.00
2023-05-05T21:49:47.937Z,100.00
2023-05-05T21:51:50.291Z,100.00
2023-05-05T21:53:52.919Z,100.00
2023-05-05T21:55:55.500Z,100.00
2023-05-05T21:57:57.799Z,100.00
2023-05-05T22:00:00.342Z,100.00
2023-05-05T22:02:02.689Z,100.00
2023-05-05T22:04:05.415Z,100.00
2023-05-05T22:06:07.988Z,100.00
2023-05-05T22:08:11.226Z,100.00
2023-05-05T22:10:13.974Z,100.00
2023-05-05T22:12:16.848Z,100.00
2023-05-05T22:14:19.173Z,100.00
2023-05-05T22:16:21.850Z,100.00
2023-05-05T22:18:24.232Z,100.00
2023-05-05T22:20:26.705Z,100.00
2023-05-05T22:22:29.439Z,100.00
2023-05-05T22:24:31.887Z,100.00
2023-05-05T22:26:34.422Z,100.00
2023-05-05T22:28:37.036Z,100.00
2023-05-05T22:30:39.394Z,100.00
2023-05-05T22:32:43.518Z,100.00
2023-05-05T22:34:46.242Z,100.00
2023-05-05T22:36:49.236Z,100.00
2023-05-05T22:38:51.601Z,100.00
2023-05-05T22:40:54.210Z,100.00
2023-05-05T22:42:56.432Z,100.00
2023-05-05T22:44:58.812Z,100.00
2023-05-05T22:47:01.595Z,100.00
2023-05-05T22:49:03.942Z,100.00
2023-05-05T22:51:06.569Z,100.00
2023-05-05T22:53:09.165Z,100.00
2023-05-05T22:55:14.057Z,100.00
2023-05-05T22:57:16.541Z,100.00
2023-05-05T22:59:19.082Z,100.00
2023-05-05T23:01:21.556Z,100.00
2023-05-05T23:03:24.161Z,100.00
2023-05-05T23:05:26.803Z,100.00
2023-05-05T23:07:29.278Z,100.00
2023-05-05T23:09:31.586Z,100.00
2023-05-05T23:11:34.184Z,100.00
2023-05-05T23:13:36.454Z,100.00
2023-05-05T23:15:39.031Z,100.00
2023-05-05T23:17:41.635Z,100.00
2023-05-05T23:19:47.288Z,100.00
2023-05-05T23:21:53.553Z,100.00
2023-05-05T23:23:56.532Z,100.00
2023-05-05T23:25:58.814Z,100.00
2023-05-05T23:28:01.168Z,100.00
2023-05-05T23:30:03.978Z,100.00
2023-05-05T23:32:06.521Z,100.00
2023-05-05T23:34:08.905Z,100.00
2023-05-05T23:36:11.458Z,100.00
2023-05-05T23:38:13.728Z,100.00
2023-05-05T23:40:16.013Z,100.00
2023-05-05T23:42:18.594Z,100.00
2023-05-05T23:44:20.804Z,100.00
